createdAt,value
2022-09-30T00:01:54.419Z,11.42
2022-09-30T00:04:24.233Z,11.44
2022-09-30T00:06:54.505Z,11.42
2022-09-30T00:09:22.159Z,11.40
2022-09-30T00:11:49.481Z,11.45
2022-09-30T00:14:19.972Z,11.40
2022-09-30T00:16:50.436Z,11.42
2022-09-30T00:19:19.891Z,11.40
2022-09-30T00:21:48.050Z,11.48
2022-09-30T00:24:17.606Z,11.44
2022-09-30T00:26:48.041Z,11.40
2022-09-30T00:29:17.286Z,11.40
2022-09-30T00:31:46.849Z,11.37
2022-09-30T00:34:14.195Z,11.34
2022-09-30T00:36:49.771Z,11.32
2022-09-30T00:39:24.965Z,11.33
2022-09-30T00:41:56.063Z,11.35
2022-09-30T00:44:55.727Z,11.32
2022-09-30T00:47:40.894Z,11.32
2022-09-30T00:50:26.479Z,11.32
2022-09-30T00:53:05.331Z,11.32
2022-09-30T00:55:41.621Z,11.37
2022-09-30T00:58:12.143Z,11.33
2022-09-30T01:00:39.523Z,11.33
2022-09-30T01:03:07.460Z,11.26
2022-09-30T01:05:35.479Z,11.28
2022-09-30T01:08:08.467Z,11.30
2022-09-30T01:10:35.854Z,11.29
2022-09-30T01:13:06.111Z,11.29
2022-09-30T01:15:43.274Z,11.34
2022-09-30T01:18:33.224Z,11.34
2022-09-30T01:21:18.592Z,11.32
2022-09-30T01:24:04.487Z,11.31
2022-09-30T01:26:37.410Z,11.33
2022-09-30T01:29:40.501Z,11.35
2022-09-30T01:32:24.534Z,11.34
2022-09-30T01:34:55.339Z,11.34
2022-09-30T01:38:12.254Z,11.42
2022-09-30T01:41:08.900Z,11.48
2022-09-30T01:43:54.917Z,11.48
2022-09-30T01:46:34.842Z,11.49
2022-09-30T01:49:01.813Z,11.48
2022-09-30T01:51:53.908Z,11.44
2022-09-30T01:54:25.210Z,11.43
2022-09-30T01:57:03.386Z,11.42
2022-09-30T01:59:46.499Z,11.42
2022-09-30T02:02:19.684Z,11.44
2022-09-30T02:05:16.428Z,11.42
2022-09-30T02:07:50.476Z,11.44
2022-09-30T02:10:33.284Z,11.41
2022-09-30T02:13:13.164Z,11.43
2022-09-30T02:15:46.371Z,11.44
2022-09-30T02:18:28.834Z,11.45
2022-09-30T02:21:01.085Z,11.42
2022-09-30T02:23:33.323Z,11.40
2022-09-30T02:26:29.800Z,11.42
2022-09-30T02:29:04.973Z,11.39
2022-09-30T02:31:38.097Z,11.42
2022-09-30T02:34:08.478Z,11.35
2022-09-30T02:36:44.951Z,11.30
2022-09-30T02:39:26.002Z,11.32
2022-09-30T02:41:59.269Z,11.29
2022-09-30T02:44:26.845Z,11.27
2022-09-30T02:47:10.952Z,11.23
2022-09-30T02:49:58.361Z,11.20
2022-09-30T02:52:34.926Z,11.17
2022-09-30T02:55:13.537Z,11.14
2022-09-30T02:57:59.577Z,11.12
2022-09-30T03:00:27.387Z,11.08
2022-09-30T03:03:00.829Z,11.07
2022-09-30T03:05:29.419Z,11.05
2022-09-30T03:07:57.209Z,11.01
2022-09-30T03:10:24.792Z,11.00
2022-09-30T03:13:04.328Z,11.00
2022-09-30T03:16:01.389Z,10.98
2022-09-30T03:18:50.649Z,10.93
2022-09-30T03:21:45.108Z,10.96
2022-09-30T03:24:32.611Z,10.94
2022-09-30T03:27:14.838Z,10.91
2022-09-30T03:29:46.080Z,10.88
2022-09-30T03:32:43.462Z,10.86
2022-09-30T03:35:20.303Z,10.87
2022-09-30T03:38:13.260Z,10.88
2022-09-30T03:40:56.274Z,10.89
2022-09-30T03:43:33.488Z,10.89
2022-09-30T03:46:14.681Z,10.89
2022-09-30T03:48:43.186Z,10.89
2022-09-30T03:51:13.640Z,10.91
2022-09-30T03:53:42.360Z,10.95
2022-09-30T03:56:09.707Z,10.95
2022-09-30T03:58:44.568Z,10.96
2022-09-30T04:01:21.627Z,10.98
2022-09-30T04:03:52.419Z,11.01
2022-09-30T04:06:22.672Z,11.02
2022-09-30T04:08:50.458Z,11.04
2022-09-30T04:11:18.024Z,11.02
2022-09-30T04:13:45.027Z,11.00
2022-09-30T04:16:13.142Z,10.99
2022-09-30T04:18:40.212Z,11.01
2022-09-30T04:21:08.946Z,11.00
2022-09-30T04:23:40.949Z,10.97
2022-09-30T04:26:10.416Z,10.92
2022-09-30T04:28:37.676Z,10.89
2022-09-30T04:31:06.700Z,10.88
2022-09-30T04:33:33.977Z,10.88
2022-09-30T04:36:06.452Z,10.82
2022-09-30T04:38:34.232Z,10.81
2022-09-30T04:41:06.172Z,10.81
2022-09-30T04:43:34.545Z,10.79
2022-09-30T04:46:01.710Z,10.80
2022-09-30T04:48:30.424Z,10.78
2022-09-30T04:51:01.879Z,10.72
2022-09-30T04:53:31.548Z,10.75
2022-09-30T04:56:00.418Z,10.72
2022-09-30T04:58:34.652Z,10.73
2022-09-30T05:01:10.360Z,10.71
2022-09-30T05:03:37.628Z,10.67
2022-09-30T05:06:05.790Z,10.65
2022-09-30T05:08:33.923Z,10.62
2022-09-30T05:11:13.513Z,10.62
2022-09-30T05:13:41.538Z,10.59
2022-09-30T05:16:09.834Z,10.49
2022-09-30T05:18:37.633Z,10.46
2022-09-30T05:21:05.717Z,10.41
2022-09-30T05:23:33.437Z,10.37
2022-09-30T05:26:05.727Z,10.38
2022-09-30T05:28:34.768Z,10.41
2022-09-30T05:31:06.382Z,10.43
2022-09-30T05:33:34.093Z,10.47
2022-09-30T05:36:04.138Z,10.49
2022-09-30T05:38:31.213Z,10.53
2022-09-30T05:40:58.206Z,10.54
2022-09-30T05:43:25.469Z,10.53
2022-09-30T05:45:56.238Z,10.56
2022-09-30T05:48:25.665Z,10.54
2022-09-30T05:50:57.722Z,10.55
2022-09-30T05:53:26.027Z,10.57
2022-09-30T05:55:53.327Z,10.61
2022-09-30T05:58:21.465Z,10.64
2022-09-30T06:00:49.630Z,10.66
2022-09-30T06:03:18.268Z,10.67
2022-09-30T06:05:46.003Z,10.72
2022-09-30T06:08:14.847Z,10.72
2022-09-30T06:10:44.290Z,10.74
2022-09-30T06:13:11.687Z,10.77
2022-09-30T06:15:39.766Z,10.68
2022-09-30T06:18:09.977Z,10.66
2022-09-30T06:20:37.547Z,10.67
2022-09-30T06:23:05.116Z,10.60
2022-09-30T06:25:32.580Z,10.59
2022-09-30T06:27:59.648Z,10.55
2022-09-30T06:30:28.683Z,10.55
2022-09-30T06:33:01.431Z,10.57
2022-09-30T06:35:30.690Z,10.61
2022-09-30T06:37:57.647Z,10.60
2022-09-30T06:40:26.092Z,10.65
2022-09-30T06:42:58.599Z,10.65
2022-09-30T06:45:32.657Z,10.64
2022-09-30T06:48:02.542Z,10.69
2022-09-30T06:50:31.178Z,10.64
2022-09-30T06:53:02.114Z,10.69
2022-09-30T06:55:30.296Z,10.74
2022-09-30T06:57:57.812Z,10.78
2022-09-30T07:00:26.807Z,10.82
2022-09-30T07:02:57.390Z,10.80
2022-09-30T07:05:26.511Z,10.84
2022-09-30T07:07:55.132Z,10.88
2022-09-30T07:10:22.135Z,10.91
2022-09-30T07:12:51.231Z,10.94
2022-09-30T07:15:22.261Z,10.94
2022-09-30T07:17:53.786Z,11.02
2022-09-30T07:20:21.054Z,11.01
2022-09-30T07:22:50.448Z,10.98
2022-09-30T07:25:18.125Z,11.07
2022-09-30T07:27:46.901Z,11.10
2022-09-30T07:30:24.039Z,11.09
2022-09-30T07:32:58.276Z,11.05
2022-09-30T07:35:25.527Z,11.03
2022-09-30T07:37:52.628Z,11.02
2022-09-30T07:40:19.985Z,10.98
2022-09-30T07:42:46.950Z,10.95
2022-09-30T07:45:19.395Z,11.01
2022-09-30T07:47:52.505Z,10.98
2022-09-30T07:50:20.427Z,10.94
2022-09-30T07:52:47.636Z,10.90
2022-09-30T07:55:19.755Z,10.98
2022-09-30T07:57:46.809Z,11.03
2022-09-30T08:00:40.636Z,11.11
2022-09-30T08:03:01.037Z,11.13
2022-09-30T08:05:28.239Z,11.31
2022-09-30T08:07:55.284Z,11.36
2022-09-30T08:10:22.317Z,11.46
2022-09-30T08:12:49.561Z,11.46
2022-09-30T08:15:16.546Z,11.56
2022-09-30T08:17:43.461Z,11.59
2022-09-30T08:20:13.700Z,11.71
2022-09-30T08:22:41.986Z,11.74
2022-09-30T08:25:09.168Z,11.91
2022-09-30T08:27:36.635Z,11.89
2022-09-30T08:30:05.109Z,11.91
2022-09-30T08:32:32.423Z,11.89
2022-09-30T08:34:59.765Z,11.89
2022-09-30T08:37:26.762Z,11.91
2022-09-30T08:39:53.712Z,11.85
2022-09-30T08:42:50.596Z,11.73
2022-09-30T08:45:42.427Z,11.72
2022-09-30T08:48:41.943Z,11.67
2022-09-30T08:51:30.592Z,11.69
2022-09-30T08:54:02.508Z,11.78
2022-09-30T08:56:32.168Z,11.80
2022-09-30T08:59:06.807Z,11.80
2022-09-30T09:01:44.444Z,11.82
2022-09-30T09:04:13.390Z,11.79
2022-09-30T09:07:03.351Z,11.73
2022-09-30T09:09:43.155Z,11.74
2022-09-30T09:12:22.788Z,11.88
2022-09-30T09:15:18.027Z,12.10
2022-09-30T09:18:23.297Z,12.20
2022-09-30T09:20:56.119Z,12.42
2022-09-30T09:23:24.581Z,12.52
2022-09-30T09:25:56.008Z,12.46
2022-09-30T09:28:50.358Z,12.53
2022-09-30T09:31:21.503Z,12.58
2022-09-30T09:33:48.829Z,12.47
2022-09-30T09:36:45.284Z,12.59
2022-09-30T09:39:28.812Z,12.67
2022-09-30T09:42:28.253Z,12.85
2022-09-30T09:45:23.100Z,12.90
2022-09-30T09:47:53.981Z,12.89
2022-09-30T09:50:36.240Z,12.94
2022-09-30T09:53:18.493Z,13.03
2022-09-30T09:55:46.004Z,13.07
2022-09-30T09:58:17.538Z,13.04
2022-09-30T10:00:47.642Z,13.00
2022-09-30T10:03:28.720Z,13.03
2022-09-30T10:06:10.240Z,13.05
2022-09-30T10:08:40.373Z,13.05
2022-09-30T10:11:20.570Z,13.23
2022-09-30T10:13:48.668Z,13.41
2022-09-30T10:16:24.907Z,13.52
2022-09-30T10:18:52.127Z,13.65
2022-09-30T10:21:25.865Z,13.53
2022-09-30T10:23:53.701Z,13.49
2022-09-30T10:28:59.663Z,13.43
2022-09-30T10:31:42.044Z,13.17
2022-09-30T10:34:40.336Z,12.95
2022-09-30T10:37:21.123Z,12.88
2022-09-30T10:39:54.562Z,12.95
2022-09-30T10:42:26.635Z,12.91
2022-09-30T10:45:03.920Z,12.97
2022-09-30T10:47:36.270Z,13.08
2022-09-30T10:50:13.066Z,13.04
2022-09-30T10:53:04.819Z,13.03
2022-09-30T10:55:35.274Z,13.11
2022-09-30T10:58:23.607Z,13.27
2022-09-30T11:00:58.481Z,13.31
2022-09-30T11:03:35.173Z,13.32
2022-09-30T11:06:02.654Z,13.36
2022-09-30T11:08:32.575Z,13.40
2022-09-30T11:11:18.385Z,13.43
2022-09-30T11:14:02.002Z,13.50
2022-09-30T11:16:50.277Z,13.55
2022-09-30T11:19:26.941Z,13.73
2022-09-30T11:21:56.842Z,13.77
2022-09-30T11:24:41.889Z,13.80
2022-09-30T11:27:17.228Z,13.78
2022-09-30T11:30:03.429Z,13.79
2022-09-30T11:32:35.362Z,13.89
2022-09-30T11:35:08.779Z,14.25
2022-09-30T11:37:54.621Z,14.50
2022-09-30T11:40:30.041Z,14.64
2022-09-30T11:43:07.410Z,14.82
2022-09-30T11:45:45.789Z,14.85
2022-09-30T11:48:41.017Z,15.13
2022-09-30T11:51:39.860Z,15.35
2022-09-30T11:54:06.894Z,15.64
2022-09-30T11:56:51.767Z,15.57
2022-09-30T11:59:27.599Z,15.56
2022-09-30T12:01:58.995Z,15.66
2022-09-30T12:04:38.147Z,16.03
2022-09-30T12:07:15.132Z,15.85
2022-09-30T12:10:02.392Z,15.98
2022-09-30T12:12:32.298Z,16.06
2022-09-30T12:15:08.621Z,16.38
2022-09-30T12:17:50.637Z,16.57
2022-09-30T12:20:43.708Z,16.56
2022-09-30T12:23:14.145Z,16.16
2022-09-30T12:25:46.990Z,16.27
2022-09-30T12:28:42.076Z,16.38
2022-09-30T12:31:30.737Z,16.45
2022-09-30T12:34:18.327Z,16.34
2022-09-30T12:37:17.172Z,16.30
2022-09-30T12:39:55.732Z,16.39
2022-09-30T12:42:44.428Z,16.35
2022-09-30T12:45:48.925Z,16.16
2022-09-30T12:48:21.049Z,16.18
2022-09-30T12:50:54.814Z,16.11
2022-09-30T12:53:28.326Z,16.14
2022-09-30T12:56:04.578Z,16.11
2022-09-30T12:58:36.044Z,16.20
2022-09-30T13:01:07.796Z,16.29
2022-09-30T13:04:18.034Z,16.23
2022-09-30T13:06:45.492Z,16.16
2022-09-30T13:10:17.027Z,16.32
2022-09-30T13:12:46.987Z,16.19
2022-09-30T13:15:42.071Z,16.24
2022-09-30T13:18:26.895Z,16.14
2022-09-30T13:21:06.851Z,16.11
2022-09-30T13:23:49.343Z,15.99
2022-09-30T13:26:40.178Z,16.00
2022-09-30T13:29:16.475Z,16.07
2022-09-30T13:31:49.852Z,16.13
2022-09-30T13:34:26.616Z,16.17
2022-09-30T13:37:01.775Z,15.95
2022-09-30T13:39:35.475Z,15.88
2022-09-30T13:42:20.839Z,15.86
2022-09-30T13:45:13.735Z,15.90
2022-09-30T13:47:51.910Z,15.88
2022-09-30T13:50:54.859Z,15.61
2022-09-30T13:53:30.440Z,15.49
2022-09-30T13:56:02.973Z,15.44
2022-09-30T13:59:09.856Z,15.43
2022-09-30T14:01:47.412Z,15.51
2022-09-30T14:04:45.968Z,15.48
2022-09-30T14:07:41.758Z,15.50
2022-09-30T14:10:35.178Z,15.57
2022-09-30T14:13:32.575Z,15.56
2022-09-30T14:16:13.623Z,15.54
2022-09-30T14:19:08.958Z,15.54
2022-09-30T14:21:49.243Z,15.57
2022-09-30T14:24:24.178Z,15.60
2022-09-30T14:27:36.577Z,15.57
2022-09-30T14:30:12.690Z,15.62
2022-09-30T14:32:46.574Z,15.64
2022-09-30T14:35:29.717Z,15.57
2022-09-30T14:38:08.128Z,15.52
2022-09-30T14:40:40.349Z,15.54
2022-09-30T14:43:13.354Z,15.56
2022-09-30T14:45:46.733Z,15.55
2022-09-30T14:48:24.888Z,15.54
2022-09-30T14:50:56.344Z,15.49
2022-09-30T14:53:39.651Z,15.41
2022-09-30T14:56:36.545Z,15.26
2022-09-30T14:59:18.018Z,15.22
2022-09-30T15:01:48.363Z,15.21
2022-09-30T15:04:18.612Z,15.24
2022-09-30T15:06:49.835Z,15.11
2022-09-30T15:09:26.499Z,15.11
2022-09-30T15:11:54.317Z,15.14
2022-09-30T15:14:24.642Z,15.15
2022-09-30T15:16:59.444Z,15.15
2022-09-30T15:19:34.261Z,15.12
2022-09-30T15:22:05.206Z,15.11
2022-09-30T15:24:38.071Z,15.06
2022-09-30T15:27:05.859Z,14.98
2022-09-30T15:29:33.529Z,14.98
2022-09-30T15:32:05.502Z,14.91
2022-09-30T15:34:34.233Z,14.88
2022-09-30T15:37:06.945Z,14.83
2022-09-30T15:40:00.615Z,14.84
2022-09-30T15:42:50.858Z,14.75
2022-09-30T15:45:20.980Z,14.68
2022-09-30T15:48:11.658Z,14.64
2022-09-30T15:50:41.909Z,14.60
2022-09-30T15:53:38.712Z,14.60
2022-09-30T15:56:26.197Z,14.60
2022-09-30T15:59:11.177Z,14.57
2022-09-30T16:01:42.824Z,14.53
2022-09-30T16:04:17.853Z,14.50
2022-09-30T16:07:08.861Z,14.47
2022-09-30T16:09:40.647Z,14.41
2022-09-30T16:12:13.729Z,14.37
2022-09-30T16:14:49.698Z,14.34
2022-09-30T16:17:25.828Z,14.29
2022-09-30T16:19:55.033Z,14.27
2022-09-30T16:22:36.546Z,14.24
2022-09-30T16:25:28.260Z,14.21
2022-09-30T16:28:02.917Z,14.17
2022-09-30T16:30:32.370Z,14.12
2022-09-30T16:33:04.562Z,14.09
2022-09-30T16:35:31.829Z,14.05
2022-09-30T16:38:05.090Z,14.02
2022-09-30T16:40:35.829Z,13.97
2022-09-30T16:43:07.566Z,13.94
2022-09-30T16:45:35.658Z,13.92
2022-09-30T16:48:11.876Z,13.92
2022-09-30T16:50:40.733Z,13.91
2022-09-30T16:53:10.753Z,13.90
2022-09-30T16:55:38.137Z,13.87
2022-09-30T16:58:05.569Z,13.86
2022-09-30T17:00:33.580Z,13.84
2022-09-30T17:03:00.587Z,13.81
2022-09-30T17:05:28.038Z,13.80
2022-09-30T17:07:58.523Z,13.78
2022-09-30T17:10:29.147Z,13.77
2022-09-30T17:13:00.353Z,13.77
2022-09-30T17:15:29.159Z,13.75
2022-09-30T17:17:57.189Z,13.75
2022-09-30T17:20:25.211Z,13.73
2022-09-30T17:22:52.816Z,13.72
2022-09-30T17:25:22.206Z,13.71
2022-09-30T17:27:52.372Z,13.70
2022-09-30T17:30:20.159Z,13.75
2022-09-30T17:32:47.990Z,13.72
2022-09-30T17:35:15.828Z,13.71
2022-09-30T17:37:46.338Z,13.70
2022-09-30T17:40:35.343Z,13.67
2022-09-30T17:43:08.691Z,13.64
2022-09-30T17:45:38.221Z,13.64
2022-09-30T17:48:09.263Z,13.63
2022-09-30T17:50:45.334Z,13.66
2022-09-30T17:53:19.751Z,13.65
2022-09-30T17:55:49.353Z,13.65
2022-09-30T17:58:18.344Z,13.63
2022-09-30T18:00:46.890Z,13.60
2022-09-30T18:03:14.084Z,13.63
2022-09-30T18:05:41.549Z,13.58
2022-09-30T18:08:11.893Z,13.56
2022-09-30T18:10:39.560Z,13.57
2022-09-30T18:13:07.124Z,13.65
2022-09-30T18:15:34.375Z,13.62
2022-09-30T18:18:06.081Z,13.57
2022-09-30T18:20:35.136Z,13.55
2022-09-30T18:23:04.749Z,13.51
2022-09-30T18:25:32.938Z,13.51
2022-09-30T18:28:01.180Z,13.50
2022-09-30T18:30:29.152Z,13.49
2022-09-30T18:32:57.184Z,13.48
2022-09-30T18:35:26.668Z,13.48
2022-09-30T18:37:56.204Z,13.49
2022-09-30T18:40:28.043Z,13.52
2022-09-30T18:43:00.069Z,13.50
2022-09-30T18:45:31.635Z,13.51
2022-09-30T18:48:03.113Z,13.52
2022-09-30T18:50:31.287Z,13.52
2022-09-30T18:52:59.146Z,13.51
2022-09-30T18:55:29.428Z,13.52
2022-09-30T18:57:58.443Z,13.57
2022-09-30T19:00:27.187Z,13.58
2022-09-30T19:02:54.647Z,13.55
2022-09-30T19:05:22.225Z,13.49
2022-09-30T19:07:52.688Z,13.46
2022-09-30T19:10:20.618Z,13.41
2022-09-30T19:12:48.097Z,13.38
2022-09-30T19:15:16.297Z,13.37
2022-09-30T19:17:46.396Z,13.36
2022-09-30T19:20:19.383Z,13.33
2022-09-30T19:22:52.479Z,13.30
2022-09-30T19:25:23.431Z,13.30
2022-09-30T19:27:56.331Z,13.29
2022-09-30T19:30:24.195Z,13.32
2022-09-30T19:32:59.200Z,13.27
2022-09-30T19:35:38.579Z,13.23
2022-09-30T19:38:12.753Z,13.20
2022-09-30T19:40:43.594Z,13.19
2022-09-30T19:43:13.511Z,13.16
2022-09-30T19:45:40.989Z,13.22
2022-09-30T19:48:08.524Z,13.28
2022-09-30T19:50:39.695Z,13.29
2022-09-30T19:53:07.289Z,13.25
2022-09-30T19:55:46.240Z,13.23
2022-09-30T19:58:16.963Z,13.23
2022-09-30T20:00:47.123Z,13.26
2022-09-30T20:03:15.418Z,13.24
2022-09-30T20:05:44.047Z,13.25
2022-09-30T20:08:11.783Z,13.29
2022-09-30T20:10:39.181Z,13.28
2022-09-30T20:13:07.054Z,13.29
2022-09-30T20:15:52.494Z,13.26
2022-09-30T20:18:22.982Z,13.28
2022-09-30T20:20:50.213Z,13.27
2022-09-30T20:23:19.356Z,13.27
2022-09-30T20:25:47.001Z,13.26
2022-09-30T20:28:14.673Z,13.22
2022-09-30T20:30:48.125Z,13.23
2022-09-30T20:33:20.706Z,13.23
2022-09-30T20:35:48.293Z,13.19
2022-09-30T20:38:24.959Z,13.22
2022-09-30T20:40:56.341Z,13.21
2022-09-30T20:43:28.069Z,13.20
2022-09-30T20:46:01.472Z,13.18
2022-09-30T20:48:47.961Z,13.18
2022-09-30T20:51:17.690Z,13.13
2022-09-30T20:53:50.460Z,13.12
2022-09-30T20:56:18.314Z,13.14
2022-09-30T20:58:46.621Z,13.15
2022-09-30T21:01:18.697Z,13.14
2022-09-30T21:03:51.791Z,13.14
2022-09-30T21:06:27.388Z,13.10
2022-09-30T21:08:57.308Z,13.16
2022-09-30T21:11:25.287Z,13.21
2022-09-30T21:13:52.905Z,13.22
2022-09-30T21:16:22.321Z,13.18
2022-09-30T21:18:51.707Z,13.19
2022-09-30T21:21:21.394Z,13.17
2022-09-30T21:23:48.887Z,13.16
2022-09-30T21:26:18.253Z,13.24
2022-09-30T21:28:49.293Z,13.26
2022-09-30T21:31:24.931Z,13.24
2022-09-30T21:33:53.496Z,13.15
2022-09-30T21:36:24.476Z,13.14
2022-09-30T21:38:52.383Z,13.11
2022-09-30T21:41:22.596Z,13.11
2022-09-30T21:43:49.761Z,13.08
2022-09-30T21:46:18.627Z,13.08
2022-09-30T21:48:46.321Z,13.09
2022-09-30T21:51:14.075Z,13.09
2022-09-30T21:53:41.836Z,13.10
2022-09-30T21:56:12.214Z,13.09
2022-09-30T21:58:39.667Z,13.08
2022-09-30T22:01:07.666Z,13.06
2022-09-30T22:03:38.542Z,13.06
2022-09-30T22:06:08.109Z,13.05
2022-09-30T22:08:40.244Z,12.98
2022-09-30T22:11:14.584Z,12.95
2022-09-30T22:13:46.448Z,12.93
2022-09-30T22:16:15.407Z,12.94
2022-09-30T22:18:43.686Z,12.88
2022-09-30T22:21:14.018Z,12.83
2022-09-30T22:23:41.305Z,12.85
2022-09-30T22:26:12.627Z,12.82
2022-09-30T22:28:40.077Z,12.80
2022-09-30T22:31:19.627Z,12.87
2022-09-30T22:34:11.162Z,12.77
2022-09-30T22:36:57.461Z,12.75
2022-09-30T22:39:27.655Z,12.70
2022-09-30T22:41:56.346Z,12.68
2022-09-30T22:44:25.754Z,12.69
2022-09-30T22:46:53.788Z,12.68
2022-09-30T22:49:21.831Z,12.62
2022-09-30T22:51:53.711Z,12.63
2022-09-30T22:54:20.863Z,12.58
2022-09-30T22:56:50.824Z,12.64
2022-09-30T22:59:18.650Z,12.64
2022-09-30T23:01:46.115Z,12.56
2022-09-30T23:04:16.708Z,12.61
2022-09-30T23:06:51.241Z,12.63
2022-09-30T23:09:20.827Z,12.60
2022-09-30T23:11:54.356Z,12.59
2022-09-30T23:14:22.626Z,12.53
2022-09-30T23:16:50.296Z,12.56
2022-09-30T23:19:19.969Z,12.58
2022-09-30T23:21:47.521Z,12.56
2022-09-30T23:24:15.049Z,12.53
2022-09-30T23:26:44.348Z,12.52
2022-09-30T23:29:13.176Z,12.50
2022-09-30T23:31:40.691Z,12.50
2022-09-30T23:34:07.957Z,12.45
2022-09-30T23:36:37.059Z,12.50
2022-09-30T23:39:04.122Z,12.48
2022-09-30T23:41:34.331Z,12.47
2022-09-30T23:44:02.052Z,12.49
2022-09-30T23:46:29.058Z,12.53
2022-09-30T23:48:58.561Z,12.51
2022-09-30T23:51:26.435Z,12.48
2022-09-30T23:53:56.152Z,12.51
2022-09-30T23:56:23.351Z,12.56
2022-09-30T23:58:50.675Z,12.56
